Time;durP1;ratioP1;P1;durP2;ratioP2;P2;SDS_P1;SDS_P2;PMS_P1;PMS_P2;Temp;Humidity;BMP_temperature;BMP_pressure;BME280_temperature;BME280_humidity;BME280_pressure;Samples;Min_cycle;Max_cycle;Signal;HPM_P1;HPM_P2
2022/10/10 00:01:18;;;;;;;;;;;15.20;99.90;;;;;;4934876;29;20381;-66
2022/10/10 00:03:45;;;;;;;;;;;15.20;99.90;;;;;;4935505;29;19930;-68
2022/10/10 00:06:12;;;;;;;;;;;15.30;99.90;;;;;;4935176;29;19954;-69
2022/10/10 00:08:39;;;;;;;;;;;15.30;99.90;;;;;;4935335;29;19915;-66
2022/10/10 00:11:06;;;;;;;;;;;15.40;99.90;;;;;;4935480;29;19922;-67
2022/10/10 00:13:32;;;;;;;;;;;15.50;99.90;;;;;;4934918;29;19922;-67
2022/10/10 00:15:59;;;;;;;;;;;15.50;99.90;;;;;;4935316;29;19947;-67
2022/10/10 00:18:26;;;;;;;;;;;15.50;99.90;;;;;;4935264;29;19911;-66
2022/10/10 00:20:53;;;;;;;;;;;15.40;99.90;;;;;;4935319;29;20005;-67
2022/10/10 00:23:22;;;;;;;;;;;15.30;99.90;;;;;;4934681;29;19921;-67
2022/10/10 00:25:49;;;;;;;;;;;15.30;99.90;;;;;;4935306;29;19910;-67
2022/10/10 00:28:16;;;;;;;;;;;15.40;99.90;;;;;;4935538;29;19974;-70
2022/10/10 00:30:43;;;;;;;;;;;15.30;99.90;;;;;;4935217;29;19911;-73
2022/10/10 00:33:09;;;;;;;;;;;15.30;99.90;;;;;;4934655;29;19970;-70
2022/10/10 00:35:36;;;;;;;;;;;15.20;99.90;;;;;;4935367;29;19922;-72
2022/10/10 00:38:03;;;;;;;;;;;15.20;99.90;;;;;;4935114;29;19950;-75
2022/10/10 00:40:32;;;;;;;;;;;15.20;99.90;;;;;;4935130;29;20024;-68
2022/10/10 00:42:59;;;;;;;;;;;15.10;99.90;;;;;;4934746;29;19922;-75
2022/10/10 00:45:26;;;;;;;;;;;15.10;99.90;;;;;;4934924;29;19946;-72
2022/10/10 00:47:56;;;;;;;;;;;15.10;99.90;;;;;;4935293;29;19910;-72
2022/10/10 00:50:23;;;;;;;;;;;15.20;99.90;;;;;;4935246;29;19918;-73
2022/10/10 00:52:49;;;;;;;;;;;15.30;99.90;;;;;;4933534;29;19918;-75
2022/10/10 00:55:17;;;;;;;;;;;15.30;99.90;;;;;;4934937;29;19925;-69
2022/10/10 00:57:43;;;;;;;;;;;15.40;99.90;;;;;;4935227;29;19918;-74
2022/10/10 01:00:10;;;;;;;;;;;15.40;99.90;;;;;;4935228;29;19946;-71
2022/10/10 01:02:37;;;;;;;;;;;15.40;99.90;;;;;;4935582;29;20496;-68
2022/10/10 01:05:04;;;;;;;;;;;15.50;99.90;;;;;;4947310;29;19911;-67
2022/10/10 01:07:31;;;;;;;;;;;15.50;99.90;;;;;;4941781;29;19975;-71
2022/10/10 01:10:00;;;;;;;;;;;15.40;99.90;;;;;;4935118;29;19911;-71
2022/10/10 01:12:36;;;;;;;;;;;15.50;99.90;;;;;;4934662;29;20290;-72
2022/10/10 01:15:21;;;;;;;;;;;15.50;99.90;;;;;;4934623;29;19919;-70
2022/10/10 01:17:47;;;;;;;;;;;15.50;99.90;;;;;;4934970;29;19922;-73
2022/10/10 01:20:14;;;;;;;;;;;15.60;99.90;;;;;;4934842;29;19915;-74
2022/10/10 01:22:50;;;;;;;;;;;15.60;99.90;;;;;;4934238;29;19986;-72
2022/10/10 01:25:28;;;;;;;;;;;15.60;99.90;;;;;;4934566;29;19919;-73
2022/10/10 01:28:02;;;;;;;;;;;15.50;99.90;;;;;;4934452;29;19926;-71
2022/10/10 01:30:30;;;;;;;;;;;15.50;99.90;;;;;;4934542;29;20430;-72
2022/10/10 01:33:04;;;;;;;;;;;15.50;99.90;;;;;;4934182;29;20029;-70
2022/10/10 01:35:35;;;;;;;;;;;15.60;99.90;;;;;;4935629;29;19915;-74
2022/10/10 01:38:20;;;;;;;;;;;15.60;99.90;;;;;;4935654;29;20001;-72
2022/10/10 01:40:56;;;;;;;;;;;15.80;99.90;;;;;;4934662;29;19915;-73
2022/10/10 01:43:24;;;;;;;;;;;15.70;99.90;;;;;;4948395;29;19970;-72
2022/10/10 01:45:52;;;;;;;;;;;15.80;99.90;;;;;;4936566;29;19915;-74
2022/10/10 01:48:31;;;;;;;;;;;15.90;99.90;;;;;;4938178;29;19955;-67
2022/10/10 01:51:14;;;;;;;;;;;15.90;99.90;;;;;;4936783;29;20520;-69
2022/10/10 01:53:50;;;;;;;;;;;16.00;99.90;;;;;;4938114;29;20017;-73
2022/10/10 01:56:28;;;;;;;;;;;16.00;99.90;;;;;;4938110;29;19954;-71
2022/10/10 01:59:16;;;;;;;;;;;16.00;99.90;;;;;;4937842;29;19915;-67
2022/10/10 02:01:47;;;;;;;;;;;16.10;99.90;;;;;;4937097;29;20290;-69
2022/10/10 02:04:19;;;;;;;;;;;16.00;99.90;;;;;;4938452;29;19915;-68
2022/10/10 02:06:51;;;;;;;;;;;16.00;99.90;;;;;;4937698;29;19915;-67
2022/10/10 02:09:20;;;;;;;;;;;16.10;99.90;;;;;;4937499;29;20344;-67
2022/10/10 02:11:47;;;;;;;;;;;16.00;99.90;;;;;;4937376;29;19922;-68
2022/10/10 02:14:14;;;;;;;;;;;16.00;99.90;;;;;;4937889;29;19919;-72
2022/10/10 02:16:42;;;;;;;;;;;16.00;99.90;;;;;;4937655;29;19911;-67
2022/10/10 02:19:10;;;;;;;;;;;16.00;99.90;;;;;;4937436;29;20351;-73
2022/10/10 02:21:37;;;;;;;;;;;15.90;99.90;;;;;;4937041;29;20351;-75
2022/10/10 02:24:05;;;;;;;;;;;15.90;99.90;;;;;;4937297;29;19915;-71
2022/10/10 02:26:32;;;;;;;;;;;15.80;99.90;;;;;;4937354;29;19955;-71
2022/10/10 02:29:03;;;;;;;;;;;15.80;99.90;;;;;;4937482;29;19914;-70
2022/10/10 02:31:45;;;;;;;;;;;15.80;99.90;;;;;;4937334;29;20375;-74
2022/10/10 02:34:20;;;;;;;;;;;15.80;99.90;;;;;;4937395;29;19930;-73
2022/10/10 02:36:50;;;;;;;;;;;15.80;99.90;;;;;;4952446;29;19953;-68
2022/10/10 02:39:18;;;;;;;;;;;15.70;99.90;;;;;;4938530;29;19918;-71
2022/10/10 02:41:46;;;;;;;;;;;15.80;99.90;;;;;;4951610;29;19972;-71
2022/10/10 02:44:13;;;;;;;;;;;15.70;99.90;;;;;;4940613;29;19914;-72
2022/10/10 02:46:40;;;;;;;;;;;15.80;99.90;;;;;;4936904;29;19949;-74
2022/10/10 02:49:10;;;;;;;;;;;15.80;99.90;;;;;;4936715;29;19922;-75
2022/10/10 02:51:38;;;;;;;;;;;15.80;99.90;;;;;;4935900;29;20442;-67
2022/10/10 02:54:05;;;;;;;;;;;15.70;99.90;;;;;;4936799;29;19922;-70
2022/10/10 02:56:31;;;;;;;;;;;15.70;99.90;;;;;;4936951;29;19918;-69
2022/10/10 02:58:58;;;;;;;;;;;15.70;99.90;;;;;;4936897;29;19939;-68
2022/10/10 03:01:25;;;;;;;;;;;15.80;99.90;;;;;;4935788;29;19918;-71
2022/10/10 03:03:51;;;;;;;;;;;15.90;99.90;;;;;;4936676;29;19925;-73
2022/10/10 03:06:18;;;;;;;;;;;16.00;99.90;;;;;;4936759;29;19962;-70
2022/10/10 03:08:45;;;;;;;;;;;16.00;99.90;;;;;;4936783;29;19911;-72
2022/10/10 03:11:11;;;;;;;;;;;16.00;99.90;;;;;;4936158;29;19914;-72
2022/10/10 03:13:38;;;;;;;;;;;16.00;99.90;;;;;;4936384;29;20290;-72
2022/10/10 03:16:05;;;;;;;;;;;16.10;99.90;;;;;;4936559;29;19911;-75
2022/10/10 03:18:32;;;;;;;;;;;16.20;99.90;;;;;;4936643;29;19950;-74
2022/10/10 03:20:58;;;;;;;;;;;16.10;99.90;;;;;;4936019;29;19914;-75
2022/10/10 03:23:28;;;;;;;;;;;16.10;99.90;;;;;;4935899;29;19911;-69
2022/10/10 03:25:55;;;;;;;;;;;16.10;99.90;;;;;;4936435;29;19919;-73
2022/10/10 03:28:21;;;;;;;;;;;16.10;99.90;;;;;;4936445;29;19918;-68
2022/10/10 03:30:48;;;;;;;;;;;16.10;99.90;;;;;;4936080;29;20028;-68
2022/10/10 03:33:15;;;;;;;;;;;16.10;99.90;;;;;;4935876;29;19915;-67
2022/10/10 03:35:44;;;;;;;;;;;16.10;99.90;;;;;;4936005;29;19921;-68
2022/10/10 03:38:12;;;;;;;;;;;16.10;99.90;;;;;;4936254;29;20299;-71
2022/10/10 03:40:42;;;;;;;;;;;16.00;99.90;;;;;;4936404;29;19915;-70
2022/10/10 03:43:10;;;;;;;;;;;16.00;99.90;;;;;;4936019;29;19911;-68
2022/10/10 03:45:38;;;;;;;;;;;16.00;99.90;;;;;;4935948;29;19923;-73
2022/10/10 03:48:05;;;;;;;;;;;16.00;99.90;;;;;;4936043;29;19921;-70
2022/10/10 03:50:31;;;;;;;;;;;16.00;99.90;;;;;;4935777;29;19911;-68
2022/10/10 03:52:58;;;;;;;;;;;16.00;99.90;;;;;;4935340;29;19932;-70
2022/10/10 03:55:25;;;;;;;;;;;16.00;99.90;;;;;;4935486;29;19919;-72
2022/10/10 03:57:51;;;;;;;;;;;16.10;99.90;;;;;;4935897;29;20005;-73
2022/10/10 04:00:19;;;;;;;;;;;16.00;99.90;;;;;;4935688;29;20640;-70
2022/10/10 04:02:46;;;;;;;;;;;16.10;99.90;;;;;;4935124;29;20010;-72
2022/10/10 04:05:13;;;;;;;;;;;16.00;99.90;;;;;;4935563;29;19914;-68
2022/10/10 04:07:41;;;;;;;;;;;16.00;99.90;;;;;;4934996;29;20005;-70
2022/10/10 04:10:08;;;;;;;;;;;15.90;99.90;;;;;;4935596;29;19911;-69
2022/10/10 04:12:41;;;;;;;;;;;16.00;99.90;;;;;;4934526;29;20243;-71
2022/10/10 04:15:08;;;;;;;;;;;16.00;99.90;;;;;;4936034;29;19923;-68
2022/10/10 04:17:35;;;;;;;;;;;16.00;99.90;;;;;;4940981;29;20394;-72
2022/10/10 04:20:02;;;;;;;;;;;16.10;99.90;;;;;;4935595;29;19914;-69
2022/10/10 04:22:28;;;;;;;;;;;16.10;99.90;;;;;;4934864;29;19915;-69
2022/10/10 04:24:55;;;;;;;;;;;16.00;99.90;;;;;;4933957;29;19918;-68
2022/10/10 04:27:22;;;;;;;;;;;16.00;99.90;;;;;;4935102;29;19950;-67
2022/10/10 04:29:48;;;;;;;;;;;16.10;99.90;;;;;;4935043;29;19914;-68
2022/10/10 04:32:15;;;;;;;;;;;16.00;99.90;;;;;;4934928;29;19915;-69
2022/10/10 04:34:41;;;;;;;;;;;16.00;99.90;;;;;;4935390;29;19919;-69
2022/10/10 04:37:08;;;;;;;;;;;15.90;99.90;;;;;;4934858;29;20310;-72
2022/10/10 04:39:35;;;;;;;;;;;15.90;99.90;;;;;;4935027;29;19917;-72
2022/10/10 04:42:01;;;;;;;;;;;15.90;99.90;;;;;;4934203;29;19977;-68
2022/10/10 04:44:28;;;;;;;;;;;15.80;99.90;;;;;;4935096;29;20259;-68
2022/10/10 04:46:55;;;;;;;;;;;15.80;99.90;;;;;;4934959;29;19918;-67
2022/10/10 04:49:22;;;;;;;;;;;15.90;99.90;;;;;;4934812;29;19911;-70
2022/10/10 04:51:48;;;;;;;;;;;15.90;99.90;;;;;;4934493;29;20001;-67
2022/10/10 04:54:15;;;;;;;;;;;15.90;99.90;;;;;;4934832;29;19918;-69
2022/10/10 04:56:41;;;;;;;;;;;15.90;99.90;;;;;;4934945;29;19918;-70
2022/10/10 04:59:09;;;;;;;;;;;16.00;99.90;;;;;;4934789;29;19923;-70
2022/10/10 05:01:36;;;;;;;;;;;16.00;99.90;;;;;;4934421;29;19958;-67
2022/10/10 05:04:03;;;;;;;;;;;15.90;99.90;;;;;;4934870;29;19923;-69
2022/10/10 05:06:30;;;;;;;;;;;16.00;99.90;;;;;;4934617;29;20484;-70
2022/10/10 05:08:57;;;;;;;;;;;16.00;99.90;;;;;;4934997;29;19910;-68
2022/10/10 05:11:24;;;;;;;;;;;16.00;99.90;;;;;;4934326;29;19918;-71
2022/10/10 05:13:50;;;;;;;;;;;16.20;99.90;;;;;;4934826;29;19923;-73
2022/10/10 05:16:17;;;;;;;;;;;16.10;99.90;;;;;;4934873;29;19998;-68
2022/10/10 05:18:45;;;;;;;;;;;16.20;99.90;;;;;;4935003;29;19911;-68
2022/10/10 05:21:12;;;;;;;;;;;16.10;99.90;;;;;;4936709;29;19911;-70
2022/10/10 05:23:40;;;;;;;;;;;16.00;99.90;;;;;;4938620;29;19962;-69
2022/10/10 05:26:07;;;;;;;;;;;16.00;99.90;;;;;;4938668;29;19922;-69
2022/10/10 05:28:35;;;;;;;;;;;16.00;99.90;;;;;;4938502;29;19917;-68
2022/10/10 05:31:03;;;;;;;;;;;16.00;99.90;;;;;;4952584;29;19990;-70
2022/10/10 05:33:29;;;;;;;;;;;16.00;99.90;;;;;;4938094;29;19918;-67
2022/10/10 05:36:06;;;;;;;;;;;15.80;99.90;;;;;;4938139;29;19970;-69
2022/10/10 05:38:37;;;;;;;;;;;15.70;99.90;;;;;;4938116;29;19914;-67
2022/10/10 05:41:04;;;;;;;;;;;15.70;99.90;;;;;;4937711;29;19911;-67
2022/10/10 05:43:30;;;;;;;;;;;15.60;99.90;;;;;;4937983;29;20378;-66
2022/10/10 05:45:57;;;;;;;;;;;15.70;99.90;;;;;;4937991;29;19918;-67
2022/10/10 05:48:24;;;;;;;;;;;15.70;99.90;;;;;;4938773;29;19985;-67
2022/10/10 05:50:51;;;;;;;;;;;15.70;99.90;;;;;;4938187;29;19915;-70
2022/10/10 05:53:18;;;;;;;;;;;15.70;99.90;;;;;;4940902;29;19950;-67
2022/10/10 05:55:45;;;;;;;;;;;15.70;99.90;;;;;;4939558;29;19919;-69
2022/10/10 05:58:14;;;;;;;;;;;15.70;99.90;;;;;;4936225;29;19915;-68
2022/10/10 06:00:42;;;;;;;;;;;15.70;99.90;;;;;;4935660;29;19925;-71
2022/10/10 06:03:12;;;;;;;;;;;15.60;99.90;;;;;;4935405;29;19986;-71
2022/10/10 06:05:40;;;;;;;;;;;15.60;99.90;;;;;;4935267;29;19921;-69
2022/10/10 06:08:07;;;;;;;;;;;15.60;99.90;;;;;;4935548;29;19910;-71
2022/10/10 06:10:34;;;;;;;;;;;15.70;99.90;;;;;;4935405;29;19915;-68
2022/10/10 06:13:01;;;;;;;;;;;15.60;99.90;;;;;;4935810;29;20343;-73
2022/10/10 06:15:28;;;;;;;;;;;15.60;99.90;;;;;;4935667;29;19938;-71
2022/10/10 06:17:54;;;;;;;;;;;15.60;99.90;;;;;;4935283;29;20367;-69
2022/10/10 06:20:21;;;;;;;;;;;15.60;99.90;;;;;;4935230;29;20268;-71
2022/10/10 06:22:48;;;;;;;;;;;15.60;99.90;;;;;;4935322;29;20442;-68
2022/10/10 06:25:14;;;;;;;;;;;15.70;99.90;;;;;;4935219;29;19933;-69
2022/10/10 06:27:41;;;;;;;;;;;15.70;99.90;;;;;;4935198;29;20437;-73
2022/10/10 06:30:09;;;;;;;;;;;15.70;99.90;;;;;;4934828;29;19918;-76
2022/10/10 06:32:35;;;;;;;;;;;15.70;99.90;;;;;;4934606;29;20358;-71
2022/10/10 06:35:02;;;;;;;;;;;15.60;99.90;;;;;;4934822;29;19923;-67
2022/10/10 06:37:30;;;;;;;;;;;15.50;99.90;;;;;;4935320;29;20570;-71
2022/10/10 06:39:57;;;;;;;;;;;15.50;99.90;;;;;;4935220;29;19934;-70
2022/10/10 06:42:25;;;;;;;;;;;15.40;99.90;;;;;;4935066;29;19917;-73
2022/10/10 06:44:51;;;;;;;;;;;15.40;99.90;;;;;;4936107;29;20338;-70
2022/10/10 06:47:18;;;;;;;;;;;15.40;99.90;;;;;;4935775;29;19941;-71
2022/10/10 06:49:45;;;;;;;;;;;15.40;99.90;;;;;;4935256;29;19915;-73
2022/10/10 06:52:14;;;;;;;;;;;15.40;99.90;;;;;;4934903;29;19910;-70
2022/10/10 06:54:44;;;;;;;;;;;15.40;99.90;;;;;;4934949;29;20298;-74
2022/10/10 06:57:11;;;;;;;;;;;15.30;99.90;;;;;;4934719;29;19911;-72
2022/10/10 06:59:39;;;;;;;;;;;15.30;99.90;;;;;;4935209;29;20025;-74
2022/10/10 07:02:07;;;;;;;;;;;15.30;99.90;;;;;;4934601;29;20342;-70
2022/10/10 07:04:34;;;;;;;;;;;15.30;99.90;;;;;;4934654;29;19960;-69
2022/10/10 07:07:03;;;;;;;;;;;15.30;99.90;;;;;;4933432;29;19915;-68
2022/10/10 07:09:30;;;;;;;;;;;15.30;99.90;;;;;;4934633;29;20327;-71
2022/10/10 07:11:57;;;;;;;;;;;15.30;99.90;;;;;;4934887;29;20264;-73
2022/10/10 07:14:23;;;;;;;;;;;15.30;99.90;;;;;;4934949;29;20367;-69
2022/10/10 07:16:50;;;;;;;;;;;15.30;99.90;;;;;;4934997;29;19914;-69
2022/10/10 07:19:17;;;;;;;;;;;15.30;99.90;;;;;;4933238;29;20008;-71
2022/10/10 07:21:44;;;;;;;;;;;15.20;99.90;;;;;;4934511;29;19917;-70
2022/10/10 07:24:11;;;;;;;;;;;15.10;99.90;;;;;;4934633;29;19946;-69
2022/10/10 07:26:38;;;;;;;;;;;15.10;99.90;;;;;;4937501;29;19939;-71
2022/10/10 07:29:05;;;;;;;;;;;15.10;99.90;;;;;;4942181;29;19930;-67
2022/10/10 07:31:32;;;;;;;;;;;15.10;99.90;;;;;;4938251;29;19914;-69
2022/10/10 07:33:59;;;;;;;;;;;15.00;99.90;;;;;;4934898;29;19927;-69
2022/10/10 07:36:25;;;;;;;;;;;15.10;99.90;;;;;;4934859;29;19962;-66
2022/10/10 07:38:53;;;;;;;;;;;15.00;99.90;;;;;;4932033;29;20042;-66
2022/10/10 07:41:20;;;;;;;;;;;15.00;99.90;;;;;;4930291;29;20739;-67
2022/10/10 07:43:47;;;;;;;;;;;15.00;99.90;;;;;;4929948;29;19930;-68
2022/10/10 07:46:16;;;;;;;;;;;15.10;99.90;;;;;;4931302;29;19950;-68
2022/10/10 07:48:42;;;;;;;;;;;15.00;99.90;;;;;;4928931;29;19922;-67
2022/10/10 07:51:09;;;;;;;;;;;15.00;99.90;;;;;;4929069;29;19921;-71
2022/10/10 07:53:36;;;;;;;;;;;15.00;99.90;;;;;;4928581;29;20707;-68
2022/10/10 07:56:06;;;;;;;;;;;15.00;99.90;;;;;;4929639;29;19923;-69
2022/10/10 07:58:33;;;;;;;;;;;14.90;99.90;;;;;;4927827;29;19927;-66
2022/10/10 08:01:07;;;;;;;;;;;14.90;99.90;;;;;;4927493;29;19915;-71
2022/10/10 08:03:34;;;;;;;;;;;14.90;99.90;;;;;;4927726;29;19926;-68
2022/10/10 08:06:06;;;;;;;;;;;14.90;99.90;;;;;;4928569;29;19971;-67
2022/10/10 08:08:33;;;;;;;;;;;14.90;99.90;;;;;;4927816;29;19977;-74
2022/10/10 08:11:00;;;;;;;;;;;14.90;99.90;;;;;;4927415;29;19994;-72
2022/10/10 08:13:27;;;;;;;;;;;14.80;99.90;;;;;;4928159;29;19915;-68
2022/10/10 08:15:54;;;;;;;;;;;14.80;99.90;;;;;;4927990;29;19915;-70
2022/10/10 08:18:20;;;;;;;;;;;14.80;99.90;;;;;;4926803;29;19925;-69
2022/10/10 08:20:49;;;;;;;;;;;14.80;99.90;;;;;;4927197;29;19921;-69
2022/10/10 08:23:15;;;;;;;;;;;14.90;99.90;;;;;;4927086;29;20751;-71
2022/10/10 08:25:42;;;;;;;;;;;14.80;99.90;;;;;;4927248;29;19914;-73
2022/10/10 08:28:08;;;;;;;;;;;14.80;99.90;;;;;;4926607;29;19922;-68
2022/10/10 08:30:40;;;;;;;;;;;14.80;99.90;;;;;;4926881;29;19926;-72
2022/10/10 08:33:06;;;;;;;;;;;14.70;99.90;;;;;;4927111;29;19990;-73
2022/10/10 08:35:36;;;;;;;;;;;14.70;99.90;;;;;;4927082;29;19929;-66
2022/10/10 08:38:03;;;;;;;;;;;14.70;99.90;;;;;;4927142;29;20422;-70
2022/10/10 08:40:30;;;;;;;;;;;14.70;99.90;;;;;;4926607;29;20269;-67
2022/10/10 08:42:58;;;;;;;;;;;14.70;99.90;;;;;;4926148;29;20006;-67
2022/10/10 08:45:26;;;;;;;;;;;14.60;99.90;;;;;;4926671;29;20009;-72
2022/10/10 08:47:58;;;;;;;;;;;14.60;99.90;;;;;;4927108;29;19915;-72
2022/10/10 08:50:33;;;;;;;;;;;14.60;99.90;;;;;;4926782;29;19919;-70
2022/10/10 08:53:02;;;;;;;;;;;14.60;99.90;;;;;;4927017;29;19915;-68
2022/10/10 08:55:34;;;;;;;;;;;14.50;99.90;;;;;;4926897;29;20021;-70
2022/10/10 08:58:05;;;;;;;;;;;14.50;99.90;;;;;;4925818;29;19915;-72
2022/10/10 09:00:34;;;;;;;;;;;14.40;99.90;;;;;;4928727;29;20009;-69
2022/10/10 09:03:01;;;;;;;;;;;14.40;99.90;;;;;;4940519;29;19949;-67
2022/10/10 09:05:30;;;;;;;;;;;14.50;99.90;;;;;;4930978;29;19915;-71
2022/10/10 09:08:00;;;;;;;;;;;14.50;99.90;;;;;;4926527;29;20727;-70
2022/10/10 09:10:35;;;;;;;;;;;14.50;99.90;;;;;;4926624;29;20454;-68
2022/10/10 09:13:10;;;;;;;;;;;14.50;99.90;;;;;;4926819;29;19961;-70
2022/10/10 09:15:42;;;;;;;;;;;14.40;99.90;;;;;;4925226;29;19929;-69
2022/10/10 09:18:16;;;;;;;;;;;14.40;99.90;;;;;;4940804;29;19915;-72
2022/10/10 09:20:45;;;;;;;;;;;14.40;99.90;;;;;;4926147;29;20521;-69
2022/10/10 09:23:27;;;;;;;;;;;14.40;99.90;;;;;;4926728;29;20622;-70
2022/10/10 09:26:00;;;;;;;;;;;14.40;99.90;;;;;;4926683;29;20034;-69
2022/10/10 09:28:35;;;;;;;;;;;14.40;99.90;;;;;;4926488;29;19915;-72
2022/10/10 09:31:04;;;;;;;;;;;14.40;99.90;;;;;;4926374;29;19954;-69
2022/10/10 09:33:45;;;;;;;;;;;14.40;99.90;;;;;;4926669;29;19977;-69
2022/10/10 09:36:14;;;;;;;;;;;14.40;99.90;;;;;;4927201;29;19918;-72
2022/10/10 09:38:43;;;;;;;;;;;14.40;99.90;;;;;;4927187;29;19993;-74
2022/10/10 09:41:16;;;;;;;;;;;14.40;99.90;;;;;;4931201;29;19922;-68
2022/10/10 09:43:43;;;;;;;;;;;14.40;99.90;;;;;;4932900;29;19915;-68
2022/10/10 09:46:10;;;;;;;;;;;14.40;99.90;;;;;;4946749;29;19921;-70
2022/10/10 09:48:38;;;;;;;;;;;14.40;99.90;;;;;;4933116;29;19914;-72
2022/10/10 09:51:06;;;;;;;;;;;14.40;99.90;;;;;;4932587;29;19927;-70
2022/10/10 09:53:33;;;;;;;;;;;14.40;99.90;;;;;;4932814;29;19919;-70
2022/10/10 09:56:00;;;;;;;;;;;14.40;99.90;;;;;;4932603;29;19957;-69
2022/10/10 09:58:35;;;;;;;;;;;14.40;99.90;;;;;;4933308;29;19915;-70
2022/10/10 10:01:12;;;;;;;;;;;14.40;99.90;;;;;;4933100;29;19950;-70
2022/10/10 10:03:39;;;;;;;;;;;14.40;99.90;;;;;;4932830;29;20268;-73
2022/10/10 10:06:10;;;;;;;;;;;14.40;99.90;;;;;;4947853;28;19919;-74
2022/10/10 10:08:38;;;;;;;;;;;14.40;99.90;;;;;;4935952;29;20385;-69
2022/10/10 10:11:05;;;;;;;;;;;14.50;99.90;;;;;;4934218;29;19911;-75
2022/10/10 10:13:38;;;;;;;;;;;14.50;99.90;;;;;;4929204;29;19915;-71
2022/10/10 10:16:12;;;;;;;;;;;14.40;99.90;;;;;;4928127;29;19935;-72
2022/10/10 10:18:43;;;;;;;;;;;14.40;99.90;;;;;;4929781;29;19919;-71
2022/10/10 10:21:15;;;;;;;;;;;14.40;99.90;;;;;;4929182;29;19962;-70
2022/10/10 10:23:52;;;;;;;;;;;14.40;99.90;;;;;;4929793;29;20687;-74
2022/10/10 10:26:28;;;;;;;;;;;14.30;99.90;;;;;;4929073;29;19915;-74
2022/10/10 10:28:58;;;;;;;;;;;14.40;99.90;;;;;;4929587;29;19922;-74
2022/10/10 10:31:46;;;;;;;;;;;14.40;99.90;;;;;;4929325;29;20713;-69
2022/10/10 10:34:28;;;;;;;;;;;14.40;99.90;;;;;;4930646;29;19919;-74
2022/10/10 10:36:58;;;;;;;;;;;14.40;99.90;;;;;;4945143;29;19915;-69
2022/10/10 10:39:33;;;;;;;;;;;14.40;99.90;;;;;;4936960;29;19915;-74
2022/10/10 10:42:21;;;;;;;;;;;14.30;99.90;;;;;;4929350;29;19919;-70
2022/10/10 10:44:59;;;;;;;;;;;14.30;99.90;;;;;;4928853;29;19923;-72
2022/10/10 10:47:44;;;;;;;;;;;14.30;99.90;;;;;;4928773;29;19918;-73
2022/10/10 10:50:32;;;;;;;;;;;14.30;99.90;;;;;;4928582;29;19915;-72
2022/10/10 10:53:03;;;;;;;;;;;14.40;99.90;;;;;;4928524;29;19999;-70
2022/10/10 10:55:30;;;;;;;;;;;14.40;99.90;;;;;;4929390;29;19978;-74
2022/10/10 10:58:14;;;;;;;;;;;14.40;99.90;;;;;;4929579;29;19922;-73
2022/10/10 11:01:04;;;;;;;;;;;14.40;99.90;;;;;;4928554;29;19914;-75
2022/10/10 11:03:40;;;;;;;;;;;14.40;99.90;;;;;;4923305;29;19926;-74
2022/10/10 11:06:13;;;;;;;;;;;14.40;99.90;;;;;;4929005;29;19969;-73
2022/10/10 11:08:57;;;;;;;;;;;14.40;99.90;;;;;;4928944;29;20441;-75
2022/10/10 11:11:41;;;;;;;;;;;14.40;99.90;;;;;;4928230;29;19948;-74
2022/10/10 11:14:26;;;;;;;;;;;14.40;99.90;;;;;;4928760;29;19925;-74
2022/10/10 11:17:12;;;;;;;;;;;14.40;99.90;;;;;;4928631;29;19921;-73
2022/10/10 11:20:00;;;;;;;;;;;14.40;99.90;;;;;;4920600;29;19918;-72
2022/10/10 11:22:33;;;;;;;;;;;14.40;99.90;;;;;;4928179;29;20581;-73
2022/10/10 11:25:13;;;;;;;;;;;14.40;99.90;;;;;;4928503;29;19938;-74
2022/10/10 11:27:58;;;;;;;;;;;14.40;99.90;;;;;;4928532;29;20298;-74
2022/10/10 11:30:26;;;;;;;;;;;14.40;99.90;;;;;;4927915;29;20009;-73
2022/10/10 11:32:58;;;;;;;;;;;14.40;99.90;;;;;;4928470;29;20015;-75
2022/10/10 11:35:43;;;;;;;;;;;14.40;99.90;;;;;;4927909;29;19949;-73
2022/10/10 11:38:14;;;;;;;;;;;14.40;99.90;;;;;;4928305;29;19957;-73
2022/10/10 11:40:41;;;;;;;;;;;14.40;99.90;;;;;;4928124;29;20441;-74
2022/10/10 11:43:18;;;;;;;;;;;14.40;99.90;;;;;;4928120;29;19915;-72
2022/10/10 11:45:47;;;;;;;;;;;14.40;99.90;;;;;;4927613;29;19915;-74
2022/10/10 11:48:13;;;;;;;;;;;14.40;99.90;;;;;;4927784;29;19922;-74
2022/10/10 11:50:41;;;;;;;;;;;14.40;99.90;;;;;;4927792;29;19915;-74
2022/10/10 11:53:26;;;;;;;;;;;14.40;99.90;;;;;;4927936;29;19914;-70
2022/10/10 11:56:18;;;;;;;;;;;14.50;99.90;;;;;;4928145;29;19923;-72
2022/10/10 11:58:53;;;;;;;;;;;14.40;99.90;;;;;;4926976;29;19954;-73
2022/10/10 12:01:41;;;;;;;;;;;14.40;99.90;;;;;;4927794;29;19914;-71
2022/10/10 12:04:08;;;;;;;;;;;14.40;99.90;;;;;;4929400;29;19933;-72
2022/10/10 12:06:34;;;;;;;;;;;14.40;99.90;;;;;;4929196;29;19921;-74
2022/10/10 12:09:15;;;;;;;;;;;14.30;99.90;;;;;;4928698;29;20570;-74
2022/10/10 12:12:03;;;;;;;;;;;14.30;99.90;;;;;;4943343;29;19986;-75
2022/10/10 12:14:30;;;;;;;;;;;14.30;99.90;;;;;;4933045;29;19970;-70
2022/10/10 12:16:58;;;;;;;;;;;14.30;99.90;;;;;;4927291;29;19922;-72
2022/10/10 12:19:26;;;;;;;;;;;14.30;99.90;;;;;;4927112;29;19915;-73
2022/10/10 12:21:57;;;;;;;;;;;14.30;99.90;;;;;;4927089;29;19915;-73
2022/10/10 12:24:25;;;;;;;;;;;14.30;99.90;;;;;;4926938;29;19990;-73
2022/10/10 12:26:54;;;;;;;;;;;14.30;99.90;;;;;;4931207;29;19919;-72
2022/10/10 12:29:39;;;;;;;;;;;14.20;99.90;;;;;;4934859;29;19979;-73
2022/10/10 12:32:16;;;;;;;;;;;14.30;99.90;;;;;;4935340;29;19915;-74
2022/10/10 12:34:49;;;;;;;;;;;14.30;99.90;;;;;;4935189;29;19970;-74
2022/10/10 12:37:27;;;;;;;;;;;14.20;99.90;;;;;;4935114;29;19977;-74
2022/10/10 12:40:06;;;;;;;;;;;14.20;99.90;;;;;;4935162;29;19915;-73
2022/10/10 12:42:58;;;;;;;;;;;14.30;99.90;;;;;;4935155;29;19921;-74
2022/10/10 12:45:30;;;;;;;;;;;14.20;99.90;;;;;;4935075;29;19911;-74
2022/10/10 12:47:58;;;;;;;;;;;14.30;99.90;;;;;;4935152;29;19915;-74
2022/10/10 12:50:31;;;;;;;;;;;14.30;99.90;;;;;;4934815;29;20381;-72
2022/10/10 12:52:59;;;;;;;;;;;14.30;99.90;;;;;;4935003;29;19912;-73
2022/10/10 12:55:31;;;;;;;;;;;14.30;99.90;;;;;;4935214;29;19919;-73
2022/10/10 12:58:02;;;;;;;;;;;14.30;99.90;;;;;;4934956;29;19915;-72
2022/10/10 13:00:40;;;;;;;;;;;14.30;99.90;;;;;;4934994;29;19974;-75
2022/10/10 13:03:15;;;;;;;;;;;14.40;99.90;;;;;;4934291;29;19952;-73
2022/10/10 13:05:43;;;;;;;;;;;14.40;99.90;;;;;;4934999;29;20286;-73
2022/10/10 13:08:28;;;;;;;;;;;14.30;99.90;;;;;;4949570;29;20298;-71
2022/10/10 13:11:09;;;;;;;;;;;14.40;99.90;;;;;;4934721;29;19962;-71
2022/10/10 13:13:36;;;;;;;;;;;14.40;99.90;;;;;;4934723;29;19919;-74
2022/10/10 13:16:12;;;;;;;;;;;14.40;99.90;;;;;;4934897;29;19937;-74
2022/10/10 13:18:39;;;;;;;;;;;14.40;99.90;;;;;;4934688;29;19966;-73
2022/10/10 13:21:12;;;;;;;;;;;14.40;99.90;;;;;;4934254;29;20010;-70
2022/10/10 13:23:43;;;;;;;;;;;14.40;99.90;;;;;;4934774;29;20409;-73
2022/10/10 13:26:28;;;;;;;;;;;14.40;99.90;;;;;;4934749;29;19918;-70
2022/10/10 13:28:56;;;;;;;;;;;14.40;99.90;;;;;;4934882;29;19911;-70
2022/10/10 13:31:24;;;;;;;;;;;14.30;99.90;;;;;;4932970;29;20399;-69
2022/10/10 13:34:02;;;;;;;;;;;14.30;99.90;;;;;;4934437;29;20358;-71
2022/10/10 13:36:29;;;;;;;;;;;14.20;99.90;;;;;;4934774;29;20286;-70
2022/10/10 13:38:56;;;;;;;;;;;14.20;99.90;;;;;;4934072;29;19918;-68
2022/10/10 13:41:23;;;;;;;;;;;14.10;99.90;;;;;;4935368;29;20264;-67
2022/10/10 13:43:50;;;;;;;;;;;14.10;99.90;;;;;;4938342;29;20319;-70
2022/10/10 13:46:20;;;;;;;;;;;14.10;99.90;;;;;;4942254;29;19914;-68
2022/10/10 13:48:47;;;;;;;;;;;14.10;99.90;;;;;;4955505;29;19911;-72
2022/10/10 13:51:14;;;;;;;;;;;14.10;99.90;;;;;;4937972;29;19915;-68
2022/10/10 13:53:46;;;;;;;;;;;14.10;99.90;;;;;;4938020;29;19915;-68
2022/10/10 13:56:13;;;;;;;;;;;14.10;99.90;;;;;;4938793;29;19914;-74
2022/10/10 13:58:39;;;;;;;;;;;14.10;99.90;;;;;;4938946;29;19911;-67
2022/10/10 14:01:18;;;;;;;;;;;14.10;99.90;;;;;;4937643;29;20394;-66
2022/10/10 14:03:45;;;;;;;;;;;14.10;99.90;;;;;;4937549;29;19923;-71
2022/10/10 14:06:16;;;;;;;;;;;14.10;99.90;;;;;;4937791;29;19998;-68
2022/10/10 14:08:43;;;;;;;;;;;14.10;99.90;;;;;;4937747;29;20020;-67
2022/10/10 14:11:16;;;;;;;;;;;14.10;99.90;;;;;;4937204;29;19915;-67
2022/10/10 14:13:46;;;;;;;;;;;14.10;99.90;;;;;;4938257;29;19923;-67
2022/10/10 14:16:25;;;;;;;;;;;14.00;99.90;;;;;;4937730;29;19955;-68
2022/10/10 14:18:52;;;;;;;;;;;14.10;99.90;;;;;;4939626;29;20005;-67
2022/10/10 14:21:19;;;;;;;;;;;14.00;99.90;;;;;;4937050;29;19911;-67
2022/10/10 14:23:46;;;;;;;;;;;14.00;99.90;;;;;;4937452;29;19915;-67
2022/10/10 14:26:16;;;;;;;;;;;14.00;99.90;;;;;;4937399;29;19915;-67
2022/10/10 14:28:43;;;;;;;;;;;13.90;99.90;;;;;;4937507;29;19969;-67
2022/10/10 14:31:10;;;;;;;;;;;14.00;99.90;;;;;;4936904;29;19911;-74
2022/10/10 14:33:37;;;;;;;;;;;14.00;99.90;;;;;;4937147;29;20387;-73